createdAt,value
2018-09-01T00:00:55.772Z,1018.18
2018-09-01T00:01:55.757Z,1018.12
2018-09-01T00:02:55.738Z,1018.12
2018-09-01T00:03:55.720Z,1018.14
2018-09-01T00:04:55.703Z,1018.11
2018-09-01T00:05:55.686Z,1018.12
2018-09-01T00:06:55.668Z,1018.10
2018-09-01T00:07:55.651Z,1018.12
2018-09-01T00:08:55.642Z,1018.09
2018-09-01T00:09:55.619Z,1018.10
2018-09-01T00:10:55.598Z,1018.11
2018-09-01T00:11:55.585Z,1018.06
2018-09-01T00:12:55.561Z,1018.07
2018-09-01T00:13:55.551Z,1018.09
2018-09-01T00:14:55.530Z,1018.07
2018-09-01T00:15:55.514Z,1018.07
2018-09-01T00:16:55.494Z,1018.05
2018-09-01T00:17:55.482Z,1018.09
2018-09-01T00:18:55.460Z,1018.08
2018-09-01T00:19:55.443Z,1018.09
2018-09-01T00:20:55.438Z,1018.07
2018-09-01T00:21:55.408Z,1018.06
2018-09-01T00:22:55.389Z,1018.08
2018-09-01T00:23:55.375Z,1018.05
2018-09-01T00:24:55.359Z,1018.00
2018-09-01T00:25:55.340Z,1018.02
2018-09-01T00:26:55.320Z,1018.00
2018-09-01T00:27:55.305Z,1018.02
2018-09-01T00:28:55.288Z,1018.01
2018-09-01T00:29:55.271Z,1018.00
2018-09-01T00:30:55.250Z,1018.03
2018-09-01T00:31:55.234Z,1018.03
2018-09-01T00:32:55.217Z,1018.06
2018-09-01T00:33:55.201Z,1018.05
2018-09-01T00:34:55.184Z,1018.04
2018-09-01T00:35:55.166Z,1018.01
2018-09-01T00:36:55.151Z,1018.05
2018-09-01T00:37:55.133Z,1018.02
2018-09-01T00:38:55.111Z,1018.06
2018-09-01T00:39:55.098Z,1018.04
2018-09-01T00:40:55.082Z,1018.02
2018-09-01T00:41:55.060Z,1018.07
2018-09-01T00:42:55.043Z,1018.03
2018-09-01T00:43:55.024Z,1018.02
2018-09-01T00:44:55.017Z,1018.02
2018-09-01T00:45:54.989Z,1018.01
2018-09-01T00:46:54.973Z,1018.00
2018-09-01T00:47:54.957Z,1018.03
2018-09-01T00:48:54.941Z,1018.05
2018-09-01T00:49:54.927Z,1018.07
2018-09-01T00:50:54.904Z,1018.09
2018-09-01T00:51:54.887Z,1018.09
2018-09-01T00:52:54.868Z,1018.11
2018-09-01T00:53:54.853Z,1018.17
2018-09-01T00:54:54.834Z,1018.16
2018-09-01T00:55:54.816Z,1018.19
2018-09-01T00:56:54.806Z,1018.25
2018-09-01T00:57:54.781Z,1018.25
2018-09-01T00:58:54.767Z,1018.25
2018-09-01T00:59:54.749Z,1018.32
2018-09-01T01:00:54.729Z,1018.30
2018-09-01T01:01:54.710Z,1018.30
2018-09-01T01:02:54.692Z,1018.28
2018-09-01T01:03:54.675Z,1018.31
2018-09-01T01:04:54.663Z,1018.33
2018-09-01T01:05:54.652Z,1018.32
2018-09-01T01:06:54.623Z,1018.34
2018-09-01T01:07:54.607Z,1018.34
2018-09-01T01:08:54.589Z,1018.36
2018-09-01T01:09:54.577Z,1018.35
2018-09-01T01:10:54.560Z,1018.33
2018-09-01T01:11:54.537Z,1018.32
2018-09-01T01:12:54.521Z,1018.34
2018-09-01T01:13:54.503Z,1018.31
2018-09-01T01:14:54.484Z,1018.34
2018-09-01T01:15:54.468Z,1018.30
2018-09-01T01:16:54.450Z,1018.34
2018-09-01T01:17:54.431Z,1018.36
2018-09-01T01:18:54.416Z,1018.35
2018-09-01T01:19:54.396Z,1018.39
2018-09-01T01:20:54.380Z,1018.38
2018-09-01T01:21:54.389Z,1018.43
2018-09-01T01:22:54.345Z,1018.47
2018-09-01T01:23:54.324Z,1018.48
2018-09-01T01:24:54.310Z,1018.46
2018-09-01T01:25:54.292Z,1018.45
2018-09-01T01:26:54.275Z,1018.43
2018-09-01T01:27:54.256Z,1018.43
2018-09-01T01:28:54.240Z,1018.41
2018-09-01T01:29:54.222Z,1018.42
2018-09-01T01:30:54.203Z,1018.42
2018-09-01T01:31:54.187Z,1018.41
2018-09-01T01:32:54.170Z,1018.42
2018-09-01T01:33:54.150Z,1018.41
2018-09-01T01:34:54.133Z,1018.43
2018-09-01T01:35:54.115Z,1018.40
2018-09-01T01:36:54.110Z,1018.36
2018-09-01T01:37:54.080Z,1018.36
2018-09-01T01:38:54.069Z,1018.37
2018-09-01T01:39:54.044Z,1018.32
2018-09-01T01:40:54.036Z,1018.37
2018-09-01T01:41:54.010Z,1018.35
2018-09-01T01:42:53.993Z,1018.34
2018-09-01T01:43:53.974Z,1018.32
2018-09-01T01:44:53.958Z,1018.32
2018-09-01T01:45:53.940Z,1018.31
2018-09-01T01:46:53.922Z,1018.32
2018-09-01T01:47:53.907Z,1018.31
2018-09-01T01:48:53.890Z,1018.32
2018-09-01T01:49:53.871Z,1018.36
2018-09-01T01:50:53.865Z,1018.31
2018-09-01T01:51:53.834Z,1018.28
2018-09-01T01:52:53.817Z,1018.29
2018-09-01T01:53:53.803Z,1018.30
2018-09-01T01:54:53.782Z,1018.32
2018-09-01T01:55:53.766Z,1018.38
2018-09-01T01:56:53.749Z,1018.44
2018-09-01T01:57:53.727Z,1018.45
2018-09-01T01:58:53.710Z,1018.51
2018-09-01T01:59:53.692Z,1018.47
2018-09-01T02:00:53.675Z,1018.50
2018-09-01T02:01:53.662Z,1018.54
2018-09-01T02:02:53.638Z,1018.55
2018-09-01T02:03:53.723Z,1018.53
2018-09-01T02:04:53.605Z,1018.53
2018-09-01T02:05:53.585Z,1018.53
2018-09-01T02:07:36.094Z,1018.52
2018-09-01T02:08:36.076Z,1018.54
2018-09-01T02:09:36.058Z,1018.56
2018-09-01T02:10:36.040Z,1018.55
2018-09-01T02:11:36.022Z,1018.53
2018-09-01T02:12:36.007Z,1018.58
2018-09-01T02:13:35.987Z,1018.54
2018-09-01T02:14:35.970Z,1018.56
2018-09-01T02:15:35.955Z,1018.51
2018-09-01T02:16:35.933Z,1018.49
2018-09-01T02:17:35.916Z,1018.53
2018-09-01T02:18:35.897Z,1018.54
2018-09-01T02:19:35.879Z,1018.54
2018-09-01T02:20:35.862Z,1018.54
2018-09-01T02:21:35.850Z,1018.55
2018-09-01T02:22:35.827Z,1018.59
2018-09-01T02:23:35.806Z,1018.64
2018-09-01T02:24:35.789Z,1018.61
2018-09-01T02:25:35.773Z,1018.62
2018-09-01T02:26:35.756Z,1018.61
2018-09-01T02:27:35.735Z,1018.62
2018-09-01T02:28:35.718Z,1018.62
2018-09-01T02:29:35.706Z,1018.64
2018-09-01T02:30:35.682Z,1018.64
2018-09-01T02:31:35.664Z,1018.66
2018-09-01T02:32:35.646Z,1018.72
2018-09-01T02:33:35.627Z,1018.75
2018-09-01T02:34:35.610Z,1018.75
2018-09-01T02:35:35.590Z,1018.76
2018-09-01T02:36:35.573Z,1018.79
2018-09-01T02:37:35.554Z,1018.76
2018-09-01T02:38:35.538Z,1018.77
2018-09-01T02:39:35.515Z,1018.77
2018-09-01T02:40:35.550Z,1018.80
2018-09-01T02:41:35.482Z,1018.74
2018-09-01T02:42:35.462Z,1018.77
2018-09-01T02:43:35.444Z,1018.78
2018-09-01T02:44:35.426Z,1018.75
2018-09-01T02:45:35.409Z,1018.81
2018-09-01T02:46:35.388Z,1018.79
2018-09-01T02:47:35.372Z,1018.86
2018-09-01T02:48:35.355Z,1018.84
2018-09-01T02:49:35.337Z,1018.86
2018-09-01T02:50:35.317Z,1018.92
2018-09-01T02:51:35.301Z,1018.92
2018-09-01T02:52:35.286Z,1018.89
2018-09-01T02:53:35.270Z,1018.91
2018-09-01T02:54:35.243Z,1018.91
2018-09-01T02:55:35.224Z,1018.88
2018-09-01T02:56:35.207Z,1018.92
2018-09-01T02:57:35.189Z,1018.87
2018-09-01T02:58:35.171Z,1018.85
2018-09-01T02:59:35.154Z,1018.82
2018-09-01T03:00:35.133Z,1018.76
2018-09-01T03:01:35.116Z,1018.76
2018-09-01T03:02:35.100Z,1018.79
2018-09-01T03:03:35.081Z,1018.80
2018-09-01T03:04:35.058Z,1018.83
2018-09-01T03:05:35.055Z,1018.80
2018-09-01T03:06:35.023Z,1018.82
2018-09-01T03:07:35.012Z,1018.82
2018-09-01T03:08:34.989Z,1018.81
2018-09-01T03:09:34.967Z,1018.79
2018-09-01T03:10:34.947Z,1018.82
2018-09-01T03:11:34.930Z,1018.79
2018-09-01T03:12:34.909Z,1018.78
2018-09-01T03:13:34.892Z,1018.78
2018-09-01T03:14:34.872Z,1018.75
2018-09-01T03:15:34.854Z,1018.76
2018-09-01T03:16:34.839Z,1018.76
2018-09-01T03:17:34.821Z,1018.76
2018-09-01T03:18:34.802Z,1018.74
2018-09-01T03:19:34.784Z,1018.73
2018-09-01T03:20:34.763Z,1018.74
2018-09-01T03:21:34.744Z,1018.74
2018-09-01T03:22:34.725Z,1018.71
2018-09-01T03:23:34.706Z,1018.69
2018-09-01T03:24:34.688Z,1018.70
2018-09-01T03:25:34.669Z,1018.69
2018-09-01T03:26:34.653Z,1018.69
2018-09-01T03:27:34.631Z,1018.73
2018-09-01T03:28:34.614Z,1018.72
2018-09-01T03:29:34.597Z,1018.76
2018-09-01T03:30:34.574Z,1018.78
2018-09-01T03:31:34.564Z,1018.76
2018-09-01T03:32:34.537Z,1018.78
2018-09-01T03:33:34.517Z,1018.74
2018-09-01T03:34:34.504Z,1018.73
2018-09-01T03:35:34.481Z,1018.77
2018-09-01T03:36:34.463Z,1018.77
2018-09-01T03:37:34.445Z,1018.73
2018-09-01T03:38:34.421Z,1018.74
2018-09-01T03:39:34.406Z,1018.73
2018-09-01T03:40:34.387Z,1018.74
2018-09-01T03:41:34.367Z,1018.70
2018-09-01T03:42:34.349Z,1018.74
2018-09-01T03:43:34.329Z,1018.74
2018-09-01T03:44:34.317Z,1018.81
2018-09-01T03:45:34.293Z,1018.77
2018-09-01T03:46:34.273Z,1018.82
2018-09-01T03:47:34.255Z,1018.84
2018-09-01T03:48:34.235Z,1018.84
2018-09-01T03:49:34.217Z,1018.85
2018-09-01T03:50:34.197Z,1018.87
2018-09-01T03:51:34.178Z,1018.90
2018-09-01T03:52:34.163Z,1018.89
2018-09-01T03:53:34.141Z,1018.90
2018-09-01T03:54:34.122Z,1018.91
2018-09-01T03:55:34.104Z,1018.89
2018-09-01T03:56:34.085Z,1018.91
2018-09-01T03:57:34.066Z,1018.91
2018-09-01T03:58:34.048Z,1018.88
2018-09-01T03:59:34.029Z,1018.86
2018-09-01T04:00:34.008Z,1018.81
2018-09-01T04:01:33.994Z,1018.83
2018-09-01T04:02:33.970Z,1018.82
2018-09-01T04:03:33.952Z,1018.83
2018-09-01T04:04:33.932Z,1018.87
2018-09-01T04:05:33.914Z,1018.93
2018-09-01T04:06:33.894Z,1018.91
2018-09-01T04:07:33.874Z,1018.91
2018-09-01T04:08:33.865Z,1018.94
2018-09-01T04:09:33.837Z,1018.94
2018-09-01T04:10:33.822Z,1018.89
2018-09-01T04:11:33.799Z,1018.93
2018-09-01T04:12:33.780Z,1018.91
2018-09-01T04:13:33.760Z,1018.95
2018-09-01T04:14:33.741Z,1019.00
2018-09-01T04:15:33.737Z,1018.95
2018-09-01T04:16:33.704Z,1018.98
2018-09-01T04:17:33.683Z,1018.92
2018-09-01T04:18:33.669Z,1018.96
2018-09-01T04:19:33.644Z,1018.94
2018-09-01T04:20:33.632Z,1018.94
2018-09-01T04:21:33.615Z,1018.91
2018-09-01T04:22:33.589Z,1018.92
2018-09-01T04:23:33.571Z,1018.92
2018-09-01T04:24:36.169Z,1018.94
2018-09-01T04:25:33.536Z,1018.90
2018-09-01T04:26:33.511Z,1018.94
2018-09-01T04:27:33.495Z,1018.92
2018-09-01T04:28:33.472Z,1018.95
2018-09-01T04:29:33.453Z,1018.97
2018-09-01T04:30:33.433Z,1019.00
2018-09-01T04:31:33.414Z,1019.06
2018-09-01T04:32:33.396Z,1019.04
2018-09-01T04:33:33.375Z,1019.04
2018-09-01T04:34:33.357Z,1019.03
2018-09-01T04:35:33.344Z,1018.99
2018-09-01T04:36:33.320Z,1019.00
2018-09-01T04:37:33.300Z,1018.99
2018-09-01T04:38:33.279Z,1018.99
2018-09-01T04:39:33.276Z,1018.99
2018-09-01T04:40:33.240Z,1018.98
2018-09-01T04:41:33.222Z,1019.02
2018-09-01T04:42:33.202Z,1018.97
2018-09-01T04:43:33.183Z,1019.00
2018-09-01T04:44:33.165Z,1018.98
2018-09-01T04:45:33.145Z,1019.03
2018-09-01T04:46:33.126Z,1019.03
2018-09-01T04:47:33.107Z,1019.02
2018-09-01T04:48:33.089Z,1019.06
2018-09-01T04:49:33.067Z,1019.09
2018-09-01T04:50:33.049Z,1019.11
2018-09-01T04:51:33.027Z,1019.12
2018-09-01T04:52:33.008Z,1019.10
2018-09-01T04:53:32.989Z,1019.12
2018-09-01T04:54:32.969Z,1019.10
2018-09-01T04:55:32.951Z,1019.10
2018-09-01T04:56:32.931Z,1019.16
2018-09-01T04:57:32.919Z,1019.15
2018-09-01T04:58:32.893Z,1019.19
2018-09-01T04:59:32.881Z,1019.26
2018-09-01T05:00:32.853Z,1019.24
2018-09-01T05:01:32.836Z,1019.28
2018-09-01T05:02:32.819Z,1019.29
2018-09-01T05:03:32.797Z,1019.27
2018-09-01T05:04:32.778Z,1019.28
2018-09-01T05:05:32.759Z,1019.29
2018-09-01T05:06:32.739Z,1019.32
2018-09-01T05:07:32.723Z,1019.29
2018-09-01T05:08:32.701Z,1019.31
2018-09-01T05:09:32.681Z,1019.28
2018-09-01T05:10:32.663Z,1019.34
2018-09-01T05:11:32.642Z,1019.29
2018-09-01T05:12:32.624Z,1019.36
2018-09-01T05:13:32.605Z,1019.38
2018-09-01T05:14:32.586Z,1019.37
2018-09-01T05:15:32.567Z,1019.42
2018-09-01T05:16:32.546Z,1019.43
2018-09-01T05:17:32.525Z,1019.47
2018-09-01T05:18:32.510Z,1019.44
2018-09-01T05:19:32.489Z,1019.45
2018-09-01T05:20:32.467Z,1019.49
2018-09-01T05:21:32.447Z,1019.46
2018-09-01T05:22:32.429Z,1019.49
2018-09-01T05:23:32.410Z,1019.52
2018-09-01T05:24:32.392Z,1019.59
2018-09-01T05:25:32.370Z,1019.58
2018-09-01T05:26:32.350Z,1019.57
2018-09-01T05:27:32.333Z,1019.60
2018-09-01T05:28:32.358Z,1019.62
2018-09-01T05:29:32.293Z,1019.62
2018-09-01T05:30:32.279Z,1019.60
2018-09-01T05:31:32.254Z,1019.60
2018-09-01T05:32:32.234Z,1019.62
2018-09-01T05:33:32.220Z,1019.65
2018-09-01T05:34:32.199Z,1019.66
2018-09-01T05:35:32.177Z,1019.68
2018-09-01T05:36:32.227Z,1019.64
2018-09-01T05:37:32.145Z,1019.68
2018-09-01T05:38:32.120Z,1019.70
2018-09-01T05:39:32.102Z,1019.69
2018-09-01T05:40:32.081Z,1019.70
2018-09-01T05:41:32.064Z,1019.72
2018-09-01T05:42:32.046Z,1019.73
2018-09-01T05:43:32.054Z,1019.76
2018-09-01T05:44:32.005Z,1019.73
2018-09-01T05:45:31.988Z,1019.74
2018-09-01T05:46:31.967Z,1019.74
2018-09-01T05:47:31.951Z,1019.67
2018-09-01T05:48:31.928Z,1019.65
2018-09-01T05:49:31.909Z,1019.64
2018-09-01T05:50:31.888Z,1019.61
2018-09-01T05:51:31.871Z,1019.64
2018-09-01T05:52:31.852Z,1019.62
2018-09-01T05:53:31.837Z,1019.58
2018-09-01T05:54:31.816Z,1019.60
2018-09-01T05:55:31.794Z,1019.58
2018-09-01T05:56:31.781Z,1019.62
2018-09-01T05:57:31.760Z,1019.66
2018-09-01T05:58:31.736Z,1019.62
2018-09-01T05:59:31.719Z,1019.64
2018-09-01T06:00:31.736Z,1019.66
2018-09-01T06:01:31.683Z,1019.64
2018-09-01T06:02:31.662Z,1019.64
2018-09-01T06:03:31.643Z,1019.65
2018-09-01T06:04:31.626Z,1019.65
2018-09-01T06:05:31.606Z,1019.66
2018-09-01T06:06:31.588Z,1019.70
2018-09-01T06:07:31.582Z,1019.71
2018-09-01T06:08:31.548Z,1019.74
2018-09-01T06:09:31.533Z,1019.77
2018-09-01T06:10:31.516Z,1019.77
2018-09-01T06:11:31.492Z,1019.77
2018-09-01T06:12:31.475Z,1019.78
2018-09-01T06:13:31.458Z,1019.79
2018-09-01T06:14:31.438Z,1019.81
2018-09-01T06:15:31.422Z,1019.79
2018-09-01T06:16:31.400Z,1019.82
2018-09-01T06:17:31.476Z,1019.84
2018-09-01T06:18:31.368Z,1019.86
2018-09-01T06:19:31.345Z,1019.88
2018-09-01T06:20:31.326Z,1019.91
2018-09-01T06:21:31.308Z,1019.93
2018-09-01T06:22:31.902Z,1019.91
2018-09-01T06:23:31.271Z,1019.94
2018-09-01T06:24:31.252Z,1019.90
2018-09-01T06:25:31.235Z,1019.91
2018-09-01T06:26:31.216Z,1019.91
2018-09-01T06:27:31.201Z,1019.95
2018-09-01T06:28:31.181Z,1019.98
2018-09-01T06:29:31.166Z,1020.02
2018-09-01T06:30:31.144Z,1019.99
2018-09-01T06:31:31.181Z,1020.05
2018-09-01T06:32:31.109Z,1020.07
2018-09-01T06:33:31.091Z,1020.03
2018-09-01T06:34:31.073Z,1020.04
2018-09-01T06:35:31.056Z,1020.05
2018-09-01T06:36:31.037Z,1020.08
2018-09-01T06:37:31.042Z,1020.06
2018-09-01T06:38:31.005Z,1020.03
2018-09-01T06:39:30.985Z,1020.01
2018-09-01T06:40:30.969Z,1020.03
2018-09-01T06:41:30.950Z,1020.07
2018-09-01T06:42:30.932Z,1020.06
2018-09-01T06:43:30.917Z,1020.05
2018-09-01T06:44:30.899Z,1020.08
2018-09-01T06:45:30.881Z,1020.11
2018-09-01T06:46:30.862Z,1020.11
2018-09-01T06:47:30.850Z,1020.08
2018-09-01T06:48:30.830Z,1020.08
2018-09-01T06:49:30.813Z,1020.09
2018-09-01T06:50:30.795Z,1020.12
2018-09-01T06:51:30.809Z,1020.12
2018-09-01T06:52:30.763Z,1020.13
2018-09-01T06:53:30.746Z,1020.13
2018-09-01T06:54:30.730Z,1020.14
2018-09-01T06:55:30.710Z,1020.16
2018-09-01T06:56:30.695Z,1020.19
2018-09-01T06:57:30.682Z,1020.19
2018-09-01T06:58:30.669Z,1020.24
2018-09-01T06:59:30.644Z,1020.28
2018-09-01T07:00:30.634Z,1020.30
2018-09-01T07:01:30.612Z,1020.33
2018-09-01T07:02:30.598Z,1020.32
2018-09-01T07:03:30.582Z,1020.37
2018-09-01T07:04:30.573Z,1020.40
2018-09-01T07:05:30.548Z,1020.55
2018-09-01T07:06:30.532Z,1021.01
2018-09-01T07:07:30.517Z,1021.24
2018-09-01T07:08:30.501Z,1021.23
2018-09-01T07:09:30.485Z,1021.38
2018-09-01T07:10:30.480Z,1021.59
2018-09-01T07:11:30.458Z,1021.67
2018-09-01T07:12:30.439Z,1021.76
2018-09-01T07:13:30.426Z,1021.85
2018-09-01T07:14:30.413Z,1022.10
2018-09-01T07:15:30.397Z,1022.28
2018-09-01T07:16:30.385Z,1022.46
2018-09-01T07:17:30.375Z,1022.79
2018-09-01T07:18:30.354Z,1022.98
2018-09-01T07:19:30.340Z,1023.57
2018-09-01T07:20:30.327Z,1023.90
2018-09-01T07:21:30.314Z,1024.12
2018-09-01T07:22:30.302Z,1024.84
2018-09-01T07:23:30.289Z,1025.80
2018-09-01T07:24:30.276Z,1026.58
2018-09-01T07:25:30.264Z,1026.75
2018-09-01T07:26:30.254Z,1027.13
2018-09-01T07:27:30.241Z,1027.35
2018-09-01T07:28:30.228Z,1027.63
2018-09-01T07:29:30.219Z,1025.64
2018-09-01T07:30:30.424Z,1021.82
2018-09-01T07:31:30.633Z,1022.15
2018-09-01T07:32:30.193Z,1025.14
2018-09-01T07:33:30.177Z,1024.85
2018-09-01T07:34:30.170Z,1021.55
2018-09-01T07:35:30.152Z,1020.83
2018-09-01T07:36:30.142Z,1020.87
2018-09-01T07:37:30.137Z,1020.83
2018-09-01T07:38:30.120Z,1020.82
2018-09-01T07:39:30.109Z,1020.84
2018-09-01T07:40:30.100Z,1020.86
2018-09-01T07:41:30.098Z,1020.92
2018-09-01T07:42:30.077Z,1020.88
2018-09-01T07:43:30.067Z,1020.84
2018-09-01T07:44:30.059Z,1020.78
2018-09-01T07:45:30.050Z,1020.82
2018-09-01T07:46:30.037Z,1020.82
2018-09-01T07:47:30.029Z,1020.83
2018-09-01T07:48:30.019Z,1020.80
2018-09-01T07:49:30.011Z,1020.76
2018-09-01T07:50:29.998Z,1020.70
2018-09-01T07:51:29.991Z,1020.72
2018-09-01T07:52:29.976Z,1022.79
2018-09-01T07:53:29.985Z,1032.26
2018-09-01T07:54:30.013Z,1037.20
2018-09-01T07:55:29.953Z,1037.98
2018-09-01T07:56:29.940Z,1037.94
2018-09-01T07:57:29.933Z,1036.92
2018-09-01T07:58:29.926Z,1036.51
2018-09-01T07:59:29.914Z,1036.58
2018-09-01T08:00:29.902Z,1036.77
2018-09-01T08:01:29.893Z,1036.49
2018-09-01T08:02:29.892Z,1036.72
2018-09-01T08:03:29.876Z,1037.02
2018-09-01T08:04:29.867Z,1036.59
2018-09-01T08:05:29.864Z,1038.94
2018-09-01T08:06:29.853Z,1036.70
2018-09-01T08:07:29.900Z,1021.32
2018-09-01T08:08:29.836Z,1021.42
2018-09-01T08:09:29.836Z,1021.29
2018-09-01T08:10:29.822Z,1021.32
2018-09-01T08:11:29.817Z,1022.93
2018-09-01T08:12:29.805Z,1032.99
2018-09-01T08:13:29.799Z,1038.46
2018-09-01T08:14:29.827Z,1038.63
2018-09-01T08:15:29.786Z,1038.36
2018-09-01T08:16:29.777Z,1037.40
2018-09-01T08:17:29.773Z,1036.37
2018-09-01T08:18:29.762Z,1035.65
2018-09-01T08:19:29.765Z,1035.07
2018-09-01T08:20:29.751Z,1034.57
2018-09-01T08:21:29.793Z,1034.85
2018-09-01T08:22:29.735Z,1035.02
2018-09-01T08:23:29.729Z,1035.71
2018-09-01T08:24:29.726Z,1035.99
2018-09-01T08:25:29.724Z,1036.06
2018-09-01T08:26:29.717Z,1035.75
2018-09-01T08:27:29.708Z,1035.41
2018-09-01T08:28:29.699Z,1034.32
2018-09-01T08:29:29.699Z,1031.90
2018-09-01T08:30:29.686Z,1030.27
2018-09-01T08:31:29.683Z,1029.71
2018-09-01T08:32:29.678Z,1030.96
2018-09-01T08:33:29.729Z,1031.56
2018-09-01T08:34:29.667Z,1030.51
2018-09-01T08:35:29.656Z,1030.06
2018-09-01T08:36:29.657Z,1029.96
2018-09-01T08:37:29.649Z,1029.82
2018-09-01T08:38:29.647Z,1029.28
2018-09-01T08:39:29.645Z,1029.15
2018-09-01T08:40:29.636Z,1028.77
2018-09-01T08:41:29.629Z,1027.36
2018-09-01T08:42:29.623Z,1026.60
2018-09-01T08:43:29.620Z,1021.45
2018-09-01T08:44:29.615Z,1021.43
2018-09-01T08:45:29.663Z,1021.31
2018-09-01T08:46:29.604Z,1021.36
2018-09-01T08:47:29.604Z,1025.76
2018-09-01T08:48:29.603Z,1025.55
2018-09-01T08:49:29.596Z,1024.69
2018-09-01T08:50:29.592Z,1024.32
2018-09-01T08:51:29.580Z,1023.77
2018-09-01T08:52:29.579Z,1022.87
2018-09-01T08:53:29.576Z,1022.31
2018-09-01T08:54:29.566Z,1021.95
2018-09-01T08:55:29.562Z,1021.67
2018-09-01T08:56:29.578Z,1021.66
2018-09-01T08:57:29.553Z,1021.69
2018-09-01T08:58:29.546Z,1021.36
2018-09-01T08:59:29.543Z,1021.51
2018-09-01T09:00:29.543Z,1021.13
2018-09-01T09:01:29.538Z,1021.12
2018-09-01T09:02:29.538Z,1021.12
2018-09-01T09:03:29.523Z,1021.17
2018-09-01T09:04:29.519Z,1021.19
2018-09-01T09:05:29.572Z,1021.23
2018-09-01T09:06:29.507Z,1021.34
2018-09-01T09:07:29.503Z,1021.47
2018-09-01T09:08:29.501Z,1021.42
2018-09-01T09:09:29.494Z,1021.50
2018-09-01T09:10:29.488Z,1021.50
2018-09-01T09:11:29.526Z,1021.54
2018-09-01T09:12:29.476Z,1021.57
2018-09-01T09:13:29.477Z,1021.82
2018-09-01T09:14:29.468Z,1021.87
2018-09-01T09:15:29.461Z,1021.82
2018-09-01T09:16:29.456Z,1021.80
2018-09-01T09:17:29.451Z,1021.77
2018-09-01T09:18:29.468Z,1021.82
2018-09-01T09:19:29.450Z,1021.91
2018-09-01T09:20:29.434Z,1021.77
2018-09-01T09:21:29.427Z,1021.36
2018-09-01T09:22:29.423Z,1021.61
2018-09-01T09:23:29.417Z,1021.44
2018-09-01T09:24:29.412Z,1021.49
2018-09-01T09:25:29.406Z,1021.45
2018-09-01T09:26:29.400Z,1021.40
2018-09-01T09:27:29.396Z,1021.35
2018-09-01T09:28:29.391Z,1021.38
2018-09-01T09:29:29.384Z,1021.40
2018-09-01T09:30:29.377Z,1021.44
2018-09-01T09:31:29.369Z,1021.36
2018-09-01T09:32:29.364Z,1021.33
2018-09-01T09:33:29.360Z,1022.14
2018-09-01T09:34:29.420Z,1022.33
2018-09-01T09:35:29.347Z,1022.38
2018-09-01T09:36:29.344Z,1021.65
2018-09-01T09:37:29.336Z,1021.27
2018-09-01T09:38:29.331Z,1021.25
2018-09-01T09:39:29.325Z,1021.25
2018-09-01T09:40:29.320Z,1021.27
2018-09-01T09:41:29.313Z,1021.25
2018-09-01T09:42:29.309Z,1021.31
2018-09-01T09:43:29.303Z,1021.33
2018-09-01T09:44:29.296Z,1022.65
2018-09-01T09:45:29.288Z,1022.66
2018-09-01T09:46:29.293Z,1022.63
2018-09-01T09:47:29.277Z,1022.63
2018-09-01T09:48:29.279Z,1022.64
2018-09-01T09:49:29.268Z,1022.55
2018-09-01T09:50:29.262Z,1022.54
2018-09-01T09:51:29.255Z,1022.52
2018-09-01T09:52:29.251Z,1022.50
2018-09-01T09:53:29.247Z,1022.52
2018-09-01T09:54:29.240Z,1022.39
2018-09-01T09:55:29.236Z,1021.97
2018-09-01T09:56:29.231Z,1022.06
2018-09-01T09:57:29.228Z,1022.49
2018-09-01T09:58:29.221Z,1022.43
2018-09-01T09:59:29.221Z,1022.37
2018-09-01T10:00:29.218Z,1022.44
2018-09-01T10:01:29.214Z,1022.18
2018-09-01T10:02:29.271Z,1022.07
2018-09-01T10:03:29.210Z,1021.03
2018-09-01T10:04:32.226Z,1021.02
2018-09-01T10:05:29.209Z,1021.02
2018-09-01T10:06:29.190Z,1020.98
2018-09-01T10:07:29.187Z,1020.97
2018-09-01T10:08:29.189Z,1020.99
2018-09-01T10:09:29.181Z,1021.02
2018-09-01T10:10:29.175Z,1021.01
2018-09-01T10:11:29.175Z,1020.99
2018-09-01T10:12:29.169Z,1021.00
2018-09-01T10:13:29.161Z,1021.01
2018-09-01T10:14:29.161Z,1021.00
2018-09-01T10:15:29.163Z,1021.02
2018-09-01T10:16:29.150Z,1021.08
2018-09-01T10:17:29.147Z,1021.10
2018-09-01T10:18:29.141Z,1021.25
2018-09-01T10:19:29.139Z,1022.01
2018-09-01T10:20:29.147Z,1022.65
2018-09-01T10:21:29.127Z,1022.69
2018-09-01T10:22:29.121Z,1022.74
2018-09-01T10:23:29.120Z,1022.72
2018-09-01T10:24:29.114Z,1022.78
2018-09-01T10:25:29.120Z,1022.83
2018-09-01T10:26:29.106Z,1022.79
2018-09-01T10:27:29.101Z,1022.88
2018-09-01T10:28:29.100Z,1022.91
2018-09-01T10:29:29.093Z,1021.43
2018-09-01T10:30:29.097Z,1021.15
2018-09-01T10:31:29.112Z,1022.77
2018-09-01T10:32:29.083Z,1022.88
2018-09-01T10:33:29.092Z,1021.17
2018-09-01T10:34:29.074Z,1021.08
2018-09-01T10:35:29.078Z,1022.72
2018-09-01T10:36:29.067Z,1022.93
2018-09-01T10:37:29.065Z,1022.86
2018-09-01T10:38:29.162Z,1022.86
2018-09-01T10:39:29.056Z,1022.87
2018-09-01T10:40:29.059Z,1022.89
2018-09-01T10:41:29.054Z,1022.83
2018-09-01T10:42:29.048Z,1022.40
2018-09-01T10:43:29.047Z,1022.88
2018-09-01T10:44:29.046Z,1021.09
2018-09-01T10:45:29.042Z,1020.99
2018-09-01T10:46:29.042Z,1020.94
2018-09-01T10:47:29.037Z,1021.00
2018-09-01T10:48:29.035Z,1020.98
2018-09-01T10:49:29.031Z,1021.02
2018-09-01T10:50:29.035Z,1021.04
2018-09-01T10:51:29.034Z,1021.12
2018-09-01T10:52:29.023Z,1021.38
2018-09-01T10:53:29.021Z,1021.07
2018-09-01T10:54:29.017Z,1020.99
2018-09-01T10:55:29.018Z,1021.02
2018-09-01T10:56:29.015Z,1020.98
2018-09-01T10:57:29.008Z,1021.00
2018-09-01T10:58:29.012Z,1021.03
2018-09-01T10:59:29.287Z,1021.02
2018-09-01T11:00:29.002Z,1020.99
2018-09-01T11:01:29.002Z,1020.93
2018-09-01T11:02:28.994Z,1020.96
2018-09-01T11:03:28.988Z,1020.97
2018-09-01T11:04:28.985Z,1020.98
2018-09-01T11:05:29.032Z,1021.11
2018-09-01T11:06:28.982Z,1021.17
2018-09-01T11:07:28.975Z,1021.22
2018-09-01T11:08:28.971Z,1021.18
2018-09-01T11:09:28.966Z,1021.16
2018-09-01T11:10:28.961Z,1021.15
2018-09-01T11:11:28.956Z,1021.23
2018-09-01T11:12:28.953Z,1021.22
2018-09-01T11:13:28.952Z,1021.12
2018-09-01T11:14:28.941Z,1021.26
2018-09-01T11:15:28.939Z,1021.61
2018-09-01T11:16:28.936Z,1021.41
2018-09-01T11:17:28.950Z,1021.69
2018-09-01T11:18:28.924Z,1021.33
2018-09-01T11:19:28.924Z,1021.98
2018-09-01T11:20:28.918Z,1021.80
2018-09-01T11:21:28.912Z,1021.53
2018-09-01T11:22:28.911Z,1021.51
2018-09-01T11:23:28.905Z,1022.10
2018-09-01T11:24:28.913Z,1022.14
2018-09-01T11:25:28.897Z,1022.15
2018-09-01T11:26:28.891Z,1022.12
2018-09-01T11:27:28.892Z,1021.31
2018-09-01T11:28:28.884Z,1022.08
2018-09-01T11:29:28.880Z,1022.10
2018-09-01T11:30:28.878Z,1022.13
2018-09-01T11:31:28.875Z,1022.15
2018-09-01T11:32:28.872Z,1022.15
2018-09-01T11:33:28.869Z,1022.09
2018-09-01T11:34:28.866Z,1022.07
2018-09-01T11:35:28.863Z,1022.03
2018-09-01T11:36:28.866Z,1022.04
2018-09-01T11:37:28.859Z,1021.93
2018-09-01T11:38:28.861Z,1021.89
2018-09-01T11:39:28.853Z,1021.92
2018-09-01T11:40:28.856Z,1021.95
2018-09-01T11:41:28.850Z,1021.91
2018-09-01T11:42:28.937Z,1021.95
2018-09-01T11:43:28.845Z,1021.97
2018-09-01T11:44:28.846Z,1021.97
2018-09-01T11:45:28.843Z,1021.99
2018-09-01T11:46:28.841Z,1021.99
2018-09-01T11:47:28.849Z,1021.96
2018-09-01T11:48:28.842Z,1021.93
2018-09-01T11:49:28.842Z,1021.89
2018-09-01T11:50:28.838Z,1022.01
2018-09-01T11:51:28.837Z,1021.98
2018-09-01T11:52:28.838Z,1021.49
2018-09-01T11:53:28.840Z,1021.87
2018-09-01T11:54:28.838Z,1021.05
2018-09-01T11:55:28.837Z,1021.01
2018-09-01T11:56:28.891Z,1021.11
2018-09-01T11:57:28.841Z,1020.99
2018-09-01T11:58:28.915Z,1020.98
2018-09-01T11:59:28.839Z,1021.03
2018-09-01T12:00:28.838Z,1020.97
2018-09-01T12:01:28.837Z,1020.97
2018-09-01T12:02:28.834Z,1020.97
2018-09-01T12:03:28.847Z,1020.97
2018-09-01T12:04:28.829Z,1020.95
2018-09-01T12:05:28.829Z,1020.95
2018-09-01T12:06:28.833Z,1020.94